sensor_id;sensor_type;location;lat;lon;timestamp;pressure;altitude;pressure_sealevel;temperature;humidity
31911;BME280;18457;52.432;16.914;2023-03-16T00:01:28;100818.31;;;2.48;77.91
31911;BME280;18457;52.432;16.914;2023-03-16T00:04:00;100826.59;;;2.42;78.14
31911;BME280;18457;52.432;16.914;2023-03-16T00:06:31;100828.33;;;2.39;78.00
31911;BME280;18457;52.432;16.914;2023-03-16T00:09:04;100829.32;;;2.45;77.95
31911;BME280;18457;52.432;16.914;2023-03-16T00:11:35;100837.61;;;2.40;78.21
31911;BME280;18457;52.432;16.914;2023-03-16T00:14:06;100843.14;;;2.40;78.22
31911;BME280;18457;52.432;16.914;2023-03-16T00:16:38;100837.87;;;2.45;78.39
31911;BME280;18457;52.432;16.914;2023-03-16T00:19:10;100848.20;;;2.44;78.28
31911;BME280;18457;52.432;16.914;2023-03-16T00:21:42;100845.76;;;2.47;78.21
31911;BME280;18457;52.432;16.914;2023-03-16T00:24:14;100845.29;;;2.41;78.48
31911;BME280;18457;52.432;16.914;2023-03-16T00:26:48;100847.95;;;2.39;78.81
31911;BME280;18457;52.432;16.914;2023-03-16T00:29:24;100841.91;;;2.30;79.11
31911;BME280;18457;52.432;16.914;2023-03-16T00:31:56;100846.29;;;2.37;79.29
31911;BME280;18457;52.432;16.914;2023-03-16T00:34:28;100844.27;;;2.32;79.62
31911;BME280;18457;52.432;16.914;2023-03-16T00:37:04;100843.66;;;2.40;79.44
31911;BME280;18457;52.432;16.914;2023-03-16T00:39:36;100846.80;;;2.35;79.49
31911;BME280;18457;52.432;16.914;2023-03-16T00:42:08;100843.84;;;2.29;80.57
31911;BME280;18457;52.432;16.914;2023-03-16T00:44:41;100843.31;;;2.28;80.36
31911;BME280;18457;52.432;16.914;2023-03-16T00:47:14;100842.27;;;2.30;80.47
31911;BME280;18457;52.432;16.914;2023-03-16T00:49:44;100843.91;;;2.32;80.35
31911;BME280;18457;52.432;16.914;2023-03-16T00:52:16;100844.90;;;2.17;80.94
31911;BME280;18457;52.432;16.914;2023-03-16T00:54:49;100832.14;;;2.11;81.53
31911;BME280;18457;52.432;16.914;2023-03-16T00:57:24;100844.80;;;2.12;82.05
31911;BME280;18457;52.432;16.914;2023-03-16T00:59:59;100847.17;;;2.15;81.99
31911;BME280;18457;52.432;16.914;2023-03-16T01:02:35;100847.26;;;2.19;81.74
31911;BME280;18457;52.432;16.914;2023-03-16T01:05:09;100853.78;;;2.16;81.86
31911;BME280;18457;52.432;16.914;2023-03-16T01:07:42;100854.23;;;2.21;81.88
31911;BME280;18457;52.432;16.914;2023-03-16T01:10:14;100852.91;;;2.28;81.56
31911;BME280;18457;52.432;16.914;2023-03-16T01:13:05;100861.08;;;2.25;81.71
31911;BME280;18457;52.432;16.914;2023-03-16T01:15:55;100865.64;;;2.21;81.81
31911;BME280;18457;52.432;16.914;2023-03-16T01:18:27;100867.61;;;2.21;82.05
31911;BME280;18457;52.432;16.914;2023-03-16T01:20:59;100867.71;;;2.18;82.30
31911;BME280;18457;52.432;16.914;2023-03-16T01:23:31;100866.73;;;2.12;82.48
31911;BME280;18457;52.432;16.914;2023-03-16T01:26:03;100872.33;;;2.06;82.93
31911;BME280;18457;52.432;16.914;2023-03-16T01:28:35;100879.47;;;1.97;83.43
31911;BME280;18457;52.432;16.914;2023-03-16T01:31:10;100883.64;;;1.92;83.79
31911;BME280;18457;52.432;16.914;2023-03-16T01:33:44;100881.05;;;1.96;83.87
31911;BME280;18457;52.432;16.914;2023-03-16T01:36:21;100886.21;;;1.96;83.90
31911;BME280;18457;52.432;16.914;2023-03-16T01:39:00;100889.06;;;1.86;84.44
31911;BME280;18457;52.432;16.914;2023-03-16T01:41:38;100882.56;;;1.81;85.03
31911;BME280;18457;52.432;16.914;2023-03-16T01:44:13;100881.11;;;1.80;85.24
31911;BME280;18457;52.432;16.914;2023-03-16T01:46:46;100885.29;;;1.66;86.19
31911;BME280;18457;52.432;16.914;2023-03-16T01:49:20;100887.90;;;1.64;86.62
31911;BME280;18457;52.432;16.914;2023-03-16T01:51:57;100889.15;;;1.63;87.04
31911;BME280;18457;52.432;16.914;2023-03-16T01:54:36;100888.27;;;1.54;87.54
31911;BME280;18457;52.432;16.914;2023-03-16T01:57:14;100888.89;;;1.59;87.44
31911;BME280;18457;52.432;16.914;2023-03-16T01:59:51;100880.20;;;1.61;87.35
31911;BME280;18457;52.432;16.914;2023-03-16T02:02:29;100890.46;;;1.75;86.87
31911;BME280;18457;52.432;16.914;2023-03-16T02:05:05;100892.09;;;1.76;86.82
31911;BME280;18457;52.432;16.914;2023-03-16T02:07:42;100890.55;;;1.80;86.88
31911;BME280;18457;52.432;16.914;2023-03-16T02:10:18;100891.66;;;1.82;86.89
31911;BME280;18457;52.432;16.914;2023-03-16T02:12:51;100894.66;;;1.80;87.13
31911;BME280;18457;52.432;16.914;2023-03-16T02:15:23;100893.30;;;1.74;87.54
31911;BME280;18457;52.432;16.914;2023-03-16T02:17:58;100896.20;;;1.78;87.63
31911;BME280;18457;52.432;16.914;2023-03-16T02:20:37;100899.59;;;1.78;87.60
31911;BME280;18457;52.432;16.914;2023-03-16T02:23:14;100901.83;;;1.73;88.05
31911;BME280;18457;52.432;16.914;2023-03-16T02:25:54;100897.77;;;1.76;88.10
31911;BME280;18457;52.432;16.914;2023-03-16T02:28:34;100903.02;;;1.71;88.58
31911;BME280;18457;52.432;16.914;2023-03-16T02:31:08;100902.90;;;1.74;88.59
31911;BME280;18457;52.432;16.914;2023-03-16T02:33:43;100908.34;;;1.79;88.47
31911;BME280;18457;52.432;16.914;2023-03-16T02:36:16;100911.08;;;1.82;88.29
31911;BME280;18457;52.432;16.914;2023-03-16T02:38:49;100909.88;;;1.85;88.32
31911;BME280;18457;52.432;16.914;2023-03-16T02:41:22;100913.29;;;1.87;88.34
31911;BME280;18457;52.432;16.914;2023-03-16T02:44:00;100908.59;;;1.83;88.61
31911;BME280;18457;52.432;16.914;2023-03-16T02:46:35;100908.00;;;1.80;88.62
31911;BME280;18457;52.432;16.914;2023-03-16T02:49:12;100910.30;;;1.79;88.74
31911;BME280;18457;52.432;16.914;2023-03-16T02:51:47;100919.59;;;1.80;88.87
31911;BME280;18457;52.432;16.914;2023-03-16T02:54:20;100915.64;;;1.79;89.05
31911;BME280;18457;52.432;16.914;2023-03-16T02:56:52;100919.02;;;1.78;89.02
31911;BME280;18457;52.432;16.914;2023-03-16T02:59:24;100916.77;;;1.83;88.86
31911;BME280;18457;52.432;16.914;2023-03-16T03:01:57;100914.14;;;1.84;88.64
31911;BME280;18457;52.432;16.914;2023-03-16T03:04:29;100923.54;;;1.92;88.46
31911;BME280;18457;52.432;16.914;2023-03-16T03:07:02;100919.31;;;1.94;88.27
31911;BME280;18457;52.432;16.914;2023-03-16T03:09:43;100921.86;;;1.87;88.61
31911;BME280;18457;52.432;16.914;2023-03-16T03:12:16;100918.96;;;1.84;88.79
31911;BME280;18457;52.432;16.914;2023-03-16T03:14:47;100923.64;;;1.87;88.57
31911;BME280;18457;52.432;16.914;2023-03-16T03:17:21;100920.31;;;1.81;88.86
31911;BME280;18457;52.432;16.914;2023-03-16T03:20:00;100920.42;;;1.77;89.13
31911;BME280;18457;52.432;16.914;2023-03-16T03:22:37;100925.04;;;1.86;88.84
31911;BME280;18457;52.432;16.914;2023-03-16T03:25:09;100929.38;;;1.89;88.53
31911;BME280;18457;52.432;16.914;2023-03-16T03:27:42;100930.14;;;1.83;88.84
31911;BME280;18457;52.432;16.914;2023-03-16T03:30:17;100932.92;;;1.79;89.03
31911;BME280;18457;52.432;16.914;2023-03-16T03:32:51;100936.97;;;1.77;89.08
31911;BME280;18457;52.432;16.914;2023-03-16T03:35:23;100935.24;;;1.70;89.38
31911;BME280;18457;52.432;16.914;2023-03-16T03:37:55;100939.27;;;1.75;89.05
31911;BME280;18457;52.432;16.914;2023-03-16T03:40:27;100936.50;;;1.71;89.19
31911;BME280;18457;52.432;16.914;2023-03-16T03:43:02;100938.61;;;1.78;88.90
31911;BME280;18457;52.432;16.914;2023-03-16T03:45:35;100932.55;;;1.87;88.26
31911;BME280;18457;52.432;16.914;2023-03-16T03:48:07;100932.75;;;1.98;87.73
31911;BME280;18457;52.432;16.914;2023-03-16T03:50:39;100934.14;;;1.96;87.88
31911;BME280;18457;52.432;16.914;2023-03-16T03:53:30;100938.36;;;2.03;87.55
31911;BME280;18457;52.432;16.914;2023-03-16T03:56:13;100940.40;;;2.07;86.90
31911;BME280;18457;52.432;16.914;2023-03-16T03:58:45;100938.59;;;1.96;87.16
31911;BME280;18457;52.432;16.914;2023-03-16T04:01:22;100942.83;;;1.77;88.28
31911;BME280;18457;52.432;16.914;2023-03-16T04:03:54;100940.23;;;1.70;88.49
31911;BME280;18457;52.432;16.914;2023-03-16T04:06:26;100945.40;;;1.62;89.09
31911;BME280;18457;52.432;16.914;2023-03-16T04:08:58;100944.60;;;1.67;89.01
31911;BME280;18457;52.432;16.914;2023-03-16T04:11:30;100947.20;;;1.63;89.10
31911;BME280;18457;52.432;16.914;2023-03-16T04:14:02;100942.53;;;1.53;89.55
31911;BME280;18457;52.432;16.914;2023-03-16T04:16:35;100940.97;;;1.55;89.55
31911;BME280;18457;52.432;16.914;2023-03-16T04:19:07;100944.28;;;1.59;89.38
31911;BME280;18457;52.432;16.914;2023-03-16T04:21:39;100945.02;;;1.52;89.58
31911;BME280;18457;52.432;16.914;2023-03-16T04:24:11;100948.66;;;1.57;89.32
31911;BME280;18457;52.432;16.914;2023-03-16T04:26:44;100953.17;;;1.51;89.63
31911;BME280;18457;52.432;16.914;2023-03-16T04:29:18;100957.30;;;1.51;89.36
31911;BME280;18457;52.432;16.914;2023-03-16T04:31:50;100957.13;;;1.53;89.31
31911;BME280;18457;52.432;16.914;2023-03-16T04:34:24;100959.15;;;1.47;89.43
31911;BME280;18457;52.432;16.914;2023-03-16T04:36:58;100962.17;;;1.39;89.87
31911;BME280;18457;52.432;16.914;2023-03-16T04:39:32;100959.39;;;1.34;90.06
31911;BME280;18457;52.432;16.914;2023-03-16T04:42:04;100963.50;;;1.35;90.04
31911;BME280;18457;52.432;16.914;2023-03-16T04:44:36;100965.10;;;1.35;90.17
31911;BME280;18457;52.432;16.914;2023-03-16T04:47:15;100965.53;;;1.46;89.51
31911;BME280;18457;52.432;16.914;2023-03-16T04:49:48;100969.00;;;1.42;89.50
31911;BME280;18457;52.432;16.914;2023-03-16T04:52:20;100971.60;;;1.47;89.22
31911;BME280;18457;52.432;16.914;2023-03-16T04:54:52;100968.33;;;1.44;89.12
31911;BME280;18457;52.432;16.914;2023-03-16T04:57:24;100970.42;;;1.50;89.00
31911;BME280;18457;52.432;16.914;2023-03-16T04:59:56;100975.73;;;1.57;88.71
31911;BME280;18457;52.432;16.914;2023-03-16T05:02:39;100972.92;;;1.58;88.45
31911;BME280;18457;52.432;16.914;2023-03-16T05:05:11;100973.27;;;1.58;89.08
31911;BME280;18457;52.432;16.914;2023-03-16T05:07:42;100973.73;;;1.55;88.86
31911;BME280;18457;52.432;16.914;2023-03-16T05:10:16;100975.04;;;1.58;88.32
31911;BME280;18457;52.432;16.914;2023-03-16T05:12:49;100973.00;;;1.62;87.82
31911;BME280;18457;52.432;16.914;2023-03-16T05:15:21;100977.22;;;1.68;87.28
31911;BME280;18457;52.432;16.914;2023-03-16T05:18:09;100976.30;;;1.67;87.27
31911;BME280;18457;52.432;16.914;2023-03-16T05:20:41;100979.42;;;1.63;87.33
31911;BME280;18457;52.432;16.914;2023-03-16T05:23:15;100981.74;;;1.63;87.65
31911;BME280;18457;52.432;16.914;2023-03-16T05:25:50;100982.85;;;1.65;87.24
31911;BME280;18457;52.432;16.914;2023-03-16T05:28:24;100984.95;;;1.64;87.46
31911;BME280;18457;52.432;16.914;2023-03-16T05:31:09;100986.14;;;1.52;88.28
31911;BME280;18457;52.432;16.914;2023-03-16T05:33:44;100985.41;;;1.52;88.63
31911;BME280;18457;52.432;16.914;2023-03-16T05:36:19;100987.43;;;1.63;87.54
31911;BME280;18457;52.432;16.914;2023-03-16T05:38:53;100985.23;;;1.68;86.77
31911;BME280;18457;52.432;16.914;2023-03-16T05:41:38;100989.34;;;1.69;86.84
31911;BME280;18457;52.432;16.914;2023-03-16T05:44:16;100993.13;;;1.71;86.73
31911;BME280;18457;52.432;16.914;2023-03-16T05:47:06;100993.80;;;1.69;86.92
31911;BME280;18457;52.432;16.914;2023-03-16T05:49:41;100994.59;;;1.73;86.63
31911;BME280;18457;52.432;16.914;2023-03-16T05:52:22;100995.49;;;1.73;86.30
31911;BME280;18457;52.432;16.914;2023-03-16T05:54:56;100994.98;;;1.75;86.04
31911;BME280;18457;52.432;16.914;2023-03-16T05:57:28;100995.45;;;1.80;85.72
31911;BME280;18457;52.432;16.914;2023-03-16T06:00:02;100997.98;;;1.83;85.70
31911;BME280;18457;52.432;16.914;2023-03-16T06:02:42;101003.15;;;1.74;85.82
31911;BME280;18457;52.432;16.914;2023-03-16T06:05:15;101007.70;;;1.78;85.88
31911;BME280;18457;52.432;16.914;2023-03-16T06:07:48;101006.27;;;1.78;86.01
31911;BME280;18457;52.432;16.914;2023-03-16T06:10:21;101003.35;;;1.83;85.79
31911;BME280;18457;52.432;16.914;2023-03-16T06:12:54;100989.95;;;1.80;85.54
31911;BME280;18457;52.432;16.914;2023-03-16T06:15:28;101010.36;;;1.95;85.21
31911;BME280;18457;52.432;16.914;2023-03-16T06:18:03;101010.08;;;1.99;84.99
31911;BME280;18457;52.432;16.914;2023-03-16T06:20:35;101007.08;;;1.91;85.18
31911;BME280;18457;52.432;16.914;2023-03-16T06:23:07;101007.53;;;1.96;85.44
31911;BME280;18457;52.432;16.914;2023-03-16T06:25:40;101009.92;;;1.91;85.59
31911;BME280;18457;52.432;16.914;2023-03-16T06:28:13;101012.24;;;1.99;85.41
31911;BME280;18457;52.432;16.914;2023-03-16T06:30:47;101011.35;;;1.99;85.24
31911;BME280;18457;52.432;16.914;2023-03-16T06:33:19;101006.30;;;2.06;85.07
31911;BME280;18457;52.432;16.914;2023-03-16T06:35:52;101010.66;;;2.10;84.69
31911;BME280;18457;52.432;16.914;2023-03-16T06:38:32;101012.94;;;2.08;84.70
31911;BME280;18457;52.432;16.914;2023-03-16T06:41:24;101014.97;;;2.11;85.04
31911;BME280;18457;52.432;16.914;2023-03-16T06:43:57;101009.06;;;2.19;84.33
31911;BME280;18457;52.432;16.914;2023-03-16T06:46:29;101011.20;;;2.18;84.20
31911;BME280;18457;52.432;16.914;2023-03-16T06:49:03;101014.06;;;2.28;83.85
31911;BME280;18457;52.432;16.914;2023-03-16T06:51:35;101014.96;;;2.29;83.94
31911;BME280;18457;52.432;16.914;2023-03-16T06:54:08;101018.34;;;2.19;84.04
31911;BME280;18457;52.432;16.914;2023-03-16T06:56:41;101020.43;;;2.26;83.90
31911;BME280;18457;52.432;16.914;2023-03-16T06:59:15;101025.11;;;2.11;84.07
31911;BME280;18457;52.432;16.914;2023-03-16T07:01:47;101031.59;;;2.13;84.19
31911;BME280;18457;52.432;16.914;2023-03-16T07:04:19;101032.57;;;2.09;84.42
31911;BME280;18457;52.432;16.914;2023-03-16T07:06:55;101033.15;;;2.12;84.36
31911;BME280;18457;52.432;16.914;2023-03-16T07:09:26;101034.48;;;2.16;84.34
31911;BME280;18457;52.432;16.914;2023-03-16T07:12:01;101033.75;;;2.15;84.66
31911;BME280;18457;52.432;16.914;2023-03-16T07:14:35;101035.23;;;2.27;84.35
31911;BME280;18457;52.432;16.914;2023-03-16T07:17:09;101038.88;;;2.30;84.24
31911;BME280;18457;52.432;16.914;2023-03-16T07:19:45;101037.52;;;2.34;84.16
31911;BME280;18457;52.432;16.914;2023-03-16T07:22:16;101046.13;;;2.38;83.97
31911;BME280;18457;52.432;16.914;2023-03-16T07:24:48;101042.88;;;2.43;83.90
31911;BME280;18457;52.432;16.914;2023-03-16T07:27:26;101038.59;;;2.43;83.61
31911;BME280;18457;52.432;16.914;2023-03-16T07:30:03;101050.13;;;2.59;83.53
31911;BME280;18457;52.432;16.914;2023-03-16T07:32:36;101050.80;;;2.66;83.44
31911;BME280;18457;52.432;16.914;2023-03-16T07:35:10;101062.95;;;2.77;83.17
31911;BME280;18457;52.432;16.914;2023-03-16T07:37:43;101056.20;;;2.90;82.23
31911;BME280;18457;52.432;16.914;2023-03-16T07:40:16;101059.22;;;2.99;81.75
31911;BME280;18457;52.432;16.914;2023-03-16T07:42:51;101062.35;;;3.05;80.73
31911;BME280;18457;52.432;16.914;2023-03-16T07:45:36;101058.82;;;3.08;80.41
31911;BME280;18457;52.432;16.914;2023-03-16T07:48:18;101059.06;;;3.11;80.76
31911;BME280;18457;52.432;16.914;2023-03-16T07:51:02;101061.98;;;3.15;80.48
31911;BME280;18457;52.432;16.914;2023-03-16T07:53:34;101066.48;;;3.18;80.22
31911;BME280;18457;52.432;16.914;2023-03-16T07:56:16;101066.70;;;3.30;80.12
31911;BME280;18457;52.432;16.914;2023-03-16T07:58:53;101075.73;;;3.37;79.84
31911;BME280;18457;52.432;16.914;2023-03-16T08:01:24;101078.61;;;3.38;79.24
31911;BME280;18457;52.432;16.914;2023-03-16T08:03:57;101078.11;;;3.41;79.11
31911;BME280;18457;52.432;16.914;2023-03-16T08:06:30;101064.31;;;3.38;79.17
31911;BME280;18457;52.432;16.914;2023-03-16T08:09:03;101079.74;;;3.54;78.87
31911;BME280;18457;52.432;16.914;2023-03-16T08:11:39;101081.92;;;3.56;78.73
31911;BME280;18457;52.432;16.914;2023-03-16T08:14:13;101089.67;;;3.61;78.17
31911;BME280;18457;52.432;16.914;2023-03-16T08:17:02;101092.42;;;3.66;78.00
31911;BME280;18457;52.432;16.914;2023-03-16T08:19:35;101094.25;;;3.69;77.74
31911;BME280;18457;52.432;16.914;2023-03-16T08:22:11;101096.31;;;3.75;77.55
31911;BME280;18457;52.432;16.914;2023-03-16T08:24:46;101099.20;;;3.89;77.14
31911;BME280;18457;52.432;16.914;2023-03-16T08:27:22;101103.16;;;3.92;76.67
31911;BME280;18457;52.432;16.914;2023-03-16T08:29:59;101103.81;;;4.00;76.78
31911;BME280;18457;52.432;16.914;2023-03-16T08:32:35;101109.34;;;3.99;76.15
31911;BME280;18457;52.432;16.914;2023-03-16T08:35:17;101105.25;;;4.00;75.97
31911;BME280;18457;52.432;16.914;2023-03-16T08:37:53;101110.77;;;4.12;75.98
31911;BME280;18457;52.432;16.914;2023-03-16T08:42:50;101109.63;;;4.35;75.15
31911;BME280;18457;52.432;16.914;2023-03-16T08:45:23;101117.30;;;4.32;75.25
31911;BME280;18457;52.432;16.914;2023-03-16T08:47:53;101122.48;;;4.31;75.53
31911;BME280;18457;52.432;16.914;2023-03-16T08:50:23;101116.98;;;4.37;75.36
31911;BME280;18457;52.432;16.914;2023-03-16T08:52:53;101123.65;;;4.39;75.57
31911;BME280;18457;52.432;16.914;2023-03-16T08:55:22;101126.20;;;4.43;75.01
31911;BME280;18457;52.432;16.914;2023-03-16T08:57:53;101131.26;;;4.48;74.92
31911;BME280;18457;52.432;16.914;2023-03-16T09:00:24;101124.11;;;4.49;75.01
31911;BME280;18457;52.432;16.914;2023-03-16T09:02:55;101133.45;;;4.52;75.40
31911;BME280;18457;52.432;16.914;2023-03-16T09:05:26;101133.10;;;4.51;75.52
31911;BME280;18457;52.432;16.914;2023-03-16T09:07:55;101131.84;;;4.51;75.04
31911;BME280;18457;52.432;16.914;2023-03-16T09:10:25;101137.17;;;4.50;74.85
31911;BME280;18457;52.432;16.914;2023-03-16T09:12:56;101142.30;;;4.43;74.95
31911;BME280;18457;52.432;16.914;2023-03-16T09:15:25;101141.21;;;4.42;74.86
31911;BME280;18457;52.432;16.914;2023-03-16T09:17:56;101143.44;;;4.49;74.89
31911;BME280;18457;52.432;16.914;2023-03-16T09:20:28;101148.88;;;4.55;74.83
31911;BME280;18457;52.432;16.914;2023-03-16T09:23:01;101150.92;;;4.48;74.37
31911;BME280;18457;52.432;16.914;2023-03-16T09:25:32;101151.73;;;4.41;74.63
31911;BME280;18457;52.432;16.914;2023-03-16T09:28:01;101148.71;;;4.55;74.74
31911;BME280;18457;52.432;16.914;2023-03-16T09:30:31;101153.97;;;4.61;74.79
31911;BME280;18457;52.432;16.914;2023-03-16T09:33:02;101148.80;;;4.63;74.58
31911;BME280;18457;52.432;16.914;2023-03-16T09:35:47;101155.02;;;4.59;74.46
31911;BME280;18457;52.432;16.914;2023-03-16T09:38:18;101158.84;;;4.65;73.96
31911;BME280;18457;52.432;16.914;2023-03-16T09:40:57;101157.34;;;4.74;73.13
31911;BME280;18457;52.432;16.914;2023-03-16T09:43:36;101159.48;;;4.74;72.84
31911;BME280;18457;52.432;16.914;2023-03-16T09:46:13;101160.70;;;4.86;72.49
31911;BME280;18457;52.432;16.914;2023-03-16T09:48:47;101158.55;;;4.86;71.93
31911;BME280;18457;52.432;16.914;2023-03-16T09:51:21;101161.77;;;4.85;71.91
31911;BME280;18457;52.432;16.914;2023-03-16T09:53:57;101156.08;;;4.88;72.20
31911;BME280;18457;52.432;16.914;2023-03-16T09:56:29;101161.16;;;4.95;71.78
31911;BME280;18457;52.432;16.914;2023-03-16T09:59:04;101164.70;;;4.92;71.52
31911;BME280;18457;52.432;16.914;2023-03-16T10:01:45;101166.41;;;5.00;70.99
31911;BME280;18457;52.432;16.914;2023-03-16T10:04:30;101167.64;;;5.16;70.52
31911;BME280;18457;52.432;16.914;2023-03-16T10:07:15;101160.84;;;5.33;70.56
31911;BME280;18457;52.432;16.914;2023-03-16T10:09:55;101161.91;;;5.33;70.39
31911;BME280;18457;52.432;16.914;2023-03-16T10:12:32;101171.40;;;5.32;70.28
31911;BME280;18457;52.432;16.914;2023-03-16T10:15:07;101165.55;;;5.39;69.94
31911;BME280;18457;52.432;16.914;2023-03-16T10:17:44;101169.69;;;5.42;69.99
31911;BME280;18457;52.432;16.914;2023-03-16T10:20:19;101173.70;;;5.49;70.17
31911;BME280;18457;52.432;16.914;2023-03-16T10:22:50;101177.07;;;5.46;70.33
31911;BME280;18457;52.432;16.914;2023-03-16T10:25:24;101175.65;;;5.47;70.22
31911;BME280;18457;52.432;16.914;2023-03-16T10:27:55;101174.09;;;5.75;68.92
31911;BME280;18457;52.432;16.914;2023-03-16T10:30:28;101176.09;;;5.99;67.13
31911;BME280;18457;52.432;16.914;2023-03-16T10:33:04;101171.17;;;6.13;66.60
31911;BME280;18457;52.432;16.914;2023-03-16T10:35:46;101174.51;;;6.31;65.74
31911;BME280;18457;52.432;16.914;2023-03-16T10:38:36;101176.09;;;6.59;65.41
31911;BME280;18457;52.432;16.914;2023-03-16T10:41:20;101180.05;;;6.60;65.50
31911;BME280;18457;52.432;16.914;2023-03-16T10:43:51;101178.94;;;6.23;66.46
31911;BME280;18457;52.432;16.914;2023-03-16T10:46:25;101175.78;;;6.04;66.89
31911;BME280;18457;52.432;16.914;2023-03-16T10:48:57;101179.21;;;5.85;67.57
31911;BME280;18457;52.432;16.914;2023-03-16T10:51:31;101179.77;;;5.87;67.93
31911;BME280;18457;52.432;16.914;2023-03-16T10:54:07;101181.66;;;5.98;66.91
31911;BME280;18457;52.432;16.914;2023-03-16T10:56:44;101186.91;;;6.32;65.07
31911;BME280;18457;52.432;16.914;2023-03-16T10:59:21;101184.38;;;6.64;63.72
31911;BME280;18457;52.432;16.914;2023-03-16T11:01:54;101181.94;;;6.87;62.68
31911;BME280;18457;52.432;16.914;2023-03-16T11:04:33;101179.67;;;7.04;61.17
31911;BME280;18457;52.432;16.914;2023-03-16T11:07:02;101180.20;;;7.07;60.42
31911;BME280;18457;52.432;16.914;2023-03-16T11:09:32;101160.99;;;7.13;60.60
31911;BME280;18457;52.432;16.914;2023-03-16T11:12:14;101175.95;;;7.36;60.34
31911;BME280;18457;52.432;16.914;2023-03-16T11:14:49;101168.06;;;7.64;59.80
31911;BME280;18457;52.432;16.914;2023-03-16T11:17:29;101162.86;;;7.74;59.53
31911;BME280;18457;52.432;16.914;2023-03-16T11:20:05;101164.83;;;7.77;58.60
31911;BME280;18457;52.432;16.914;2023-03-16T11:22:45;101165.55;;;7.54;58.88
31911;BME280;18457;52.432;16.914;2023-03-16T11:25:25;101166.61;;;7.48;58.60
31911;BME280;18457;52.432;16.914;2023-03-16T11:28:02;101162.86;;;7.57;58.27
31911;BME280;18457;52.432;16.914;2023-03-16T11:30:41;101155.83;;;7.86;57.17
31911;BME280;18457;52.432;16.914;2023-03-16T11:33:13;101167.51;;;7.93;56.62
31911;BME280;18457;52.432;16.914;2023-03-16T11:35:47;101161.22;;;7.77;55.97
31911;BME280;18457;52.432;16.914;2023-03-16T11:38:33;101167.69;;;7.79;55.92
31911;BME280;18457;52.432;16.914;2023-03-16T11:41:07;101162.47;;;7.95;55.46
31911;BME280;18457;52.432;16.914;2023-03-16T11:43:48;101164.46;;;7.86;54.29
31911;BME280;18457;52.432;16.914;2023-03-16T11:46:21;101170.02;;;8.00;54.09
31911;BME280;18457;52.432;16.914;2023-03-16T11:49:00;101167.30;;;8.18;53.75
31911;BME280;18457;52.432;16.914;2023-03-16T11:51:43;101172.35;;;8.10;53.62
31911;BME280;18457;52.432;16.914;2023-03-16T11:54:34;101170.92;;;7.76;53.53
31911;BME280;18457;52.432;16.914;2023-03-16T11:57:16;101173.46;;;7.74;54.46
31911;BME280;18457;52.432;16.914;2023-03-16T12:00:03;101172.19;;;7.85;54.95
31911;BME280;18457;52.432;16.914;2023-03-16T12:02:44;101166.41;;;8.08;54.95
31911;BME280;18457;52.432;16.914;2023-03-16T12:05:29;101173.98;;;8.12;53.67
31911;BME280;18457;52.432;16.914;2023-03-16T12:08:15;101179.02;;;7.99;53.42
31911;BME280;18457;52.432;16.914;2023-03-16T12:10:56;101182.98;;;7.84;53.19
31911;BME280;18457;52.432;16.914;2023-03-16T12:13:50;101174.71;;;7.64;52.32
31911;BME280;18457;52.432;16.914;2023-03-16T12:16:27;101172.92;;;7.65;52.14
31911;BME280;18457;52.432;16.914;2023-03-16T12:19:18;101167.69;;;7.96;51.61
31911;BME280;18457;52.432;16.914;2023-03-16T12:22:00;101171.05;;;8.23;51.77
31911;BME280;18457;52.432;16.914;2023-03-16T12:24:36;101166.94;;;8.25;51.43
31911;BME280;18457;52.432;16.914;2023-03-16T12:27:18;101160.77;;;8.43;51.84
31911;BME280;18457;52.432;16.914;2023-03-16T12:30:05;101161.64;;;8.55;50.96
31911;BME280;18457;52.432;16.914;2023-03-16T12:32:45;101165.10;;;8.44;49.40
31911;BME280;18457;52.432;16.914;2023-03-16T12:35:30;101160.41;;;8.47;49.01
31911;BME280;18457;52.432;16.914;2023-03-16T12:38:22;101164.52;;;8.58;49.03
31911;BME280;18457;52.432;16.914;2023-03-16T12:41:02;101162.16;;;8.59;48.92
31911;BME280;18457;52.432;16.914;2023-03-16T12:43:44;101161.38;;;8.73;49.13
31911;BME280;18457;52.432;16.914;2023-03-16T12:46:22;101165.64;;;8.88;49.04
31911;BME280;18457;52.432;16.914;2023-03-16T12:48:59;101166.11;;;9.01;49.47
31911;BME280;18457;52.432;16.914;2023-03-16T12:51:38;101167.56;;;8.97;49.33
31911;BME280;18457;52.432;16.914;2023-03-16T12:54:19;101165.34;;;8.73;48.47
31911;BME280;18457;52.432;16.914;2023-03-16T12:56:52;101161.70;;;8.83;47.85
31911;BME280;18457;52.432;16.914;2023-03-16T12:59:36;101161.33;;;8.84;48.05
31911;BME280;18457;52.432;16.914;2023-03-16T13:02:14;101162.02;;;8.91;48.01
31911;BME280;18457;52.432;16.914;2023-03-16T13:04:47;101158.20;;;8.99;48.80
31911;BME280;18457;52.432;16.914;2023-03-16T13:07:22;101156.34;;;9.07;47.87
31911;BME280;18457;52.432;16.914;2023-03-16T13:09:55;101163.29;;;9.20;47.99
31911;BME280;18457;52.432;16.914;2023-03-16T13:12:29;101172.77;;;9.32;47.54
31911;BME280;18457;52.432;16.914;2023-03-16T13:14:59;101164.98;;;9.11;46.75
31911;BME280;18457;52.432;16.914;2023-03-16T13:17:31;101166.61;;;9.07;46.54
31911;BME280;18457;52.432;16.914;2023-03-16T13:20:04;101166.83;;;8.99;47.20
31911;BME280;18457;52.432;16.914;2023-03-16T13:22:45;101171.93;;;8.89;46.96
31911;BME280;18457;52.432;16.914;2023-03-16T13:25:17;101174.13;;;8.82;47.10
31911;BME280;18457;52.432;16.914;2023-03-16T13:27:53;101171.02;;;8.90;47.27
31911;BME280;18457;52.432;16.914;2023-03-16T13:30:33;101172.95;;;9.03;47.35
31911;BME280;18457;52.432;16.914;2023-03-16T13:33:16;101178.64;;;9.16;46.39
31911;BME280;18457;52.432;16.914;2023-03-16T13:35:48;101152.45;;;9.25;46.92